createdAt,value
2019-03-27T00:01:33.990Z,100278.33
2019-03-27T00:04:05.259Z,100289.88
2019-03-27T00:06:36.507Z,100284.73
2019-03-27T00:09:07.925Z,100288.05
2019-03-27T00:11:39.004Z,100289.34
2019-03-27T00:14:10.255Z,100281.89
2019-03-27T00:16:41.340Z,100288.13
2019-03-27T00:19:12.608Z,100293.91
2019-03-27T00:21:43.754Z,100292.32
2019-03-27T00:24:14.887Z,100292.62
2019-03-27T00:26:45.979Z,100291.34
2019-03-27T00:29:17.078Z,100299.16
2019-03-27T00:31:48.210Z,100297.70
2019-03-27T00:34:19.336Z,100295.55
2019-03-27T00:36:50.504Z,100291.88
2019-03-27T00:39:21.695Z,100291.56
2019-03-27T00:41:53.004Z,100301.20
2019-03-27T00:44:24.329Z,100299.53
2019-03-27T00:46:55.485Z,100300.92
2019-03-27T00:49:26.693Z,100302.59
2019-03-27T00:51:57.928Z,100301.59
2019-03-27T00:54:29.880Z,100308.13
2019-03-27T00:57:01.057Z,100309.59
2019-03-27T00:59:32.188Z,100310.60
2019-03-27T01:02:03.400Z,100316.34
2019-03-27T01:04:34.598Z,100315.78
2019-03-27T01:07:05.834Z,100316.06
2019-03-27T01:09:37.133Z,100320.21
2019-03-27T01:12:08.390Z,100317.73
2019-03-27T01:14:39.493Z,100321.45
2019-03-27T01:17:10.590Z,100320.16
2019-03-27T01:19:41.708Z,100321.91
2019-03-27T01:22:12.951Z,100327.73
2019-03-27T01:24:44.018Z,100326.46
2019-03-27T01:27:15.173Z,100328.49
2019-03-27T01:29:46.390Z,100334.11
2019-03-27T01:32:17.535Z,100337.22
2019-03-27T01:34:48.824Z,100341.77
2019-03-27T01:37:20.200Z,100337.45
2019-03-27T01:39:51.353Z,100339.45
2019-03-27T01:42:22.628Z,100334.12
2019-03-27T01:44:53.814Z,100332.35
2019-03-27T01:47:24.994Z,100336.88
2019-03-27T01:49:56.168Z,100336.68
2019-03-27T01:52:27.338Z,100337.05
2019-03-27T01:54:58.484Z,100334.39
2019-03-27T01:57:29.607Z,100331.32
2019-03-27T02:00:00.741Z,100335.34
2019-03-27T02:02:31.994Z,100344.67
2019-03-27T02:05:03.270Z,100340.47
2019-03-27T02:07:34.484Z,100347.80
2019-03-27T02:10:06.755Z,100343.59
2019-03-27T02:12:38.044Z,100343.73
2019-03-27T02:15:10.634Z,100349.08
2019-03-27T02:17:42.799Z,100348.33
2019-03-27T02:20:14.603Z,100349.57
2019-03-27T02:22:45.700Z,100342.78
2019-03-27T02:25:16.780Z,100350.59
2019-03-27T02:27:48.119Z,100352.63
2019-03-27T02:30:19.305Z,100359.22
2019-03-27T02:32:50.551Z,100360.56
2019-03-27T02:35:21.715Z,100358.56
2019-03-27T02:37:53.025Z,100362.73
2019-03-27T02:40:24.100Z,100368.45
2019-03-27T02:42:55.335Z,100363.84
2019-03-27T02:45:26.555Z,100363.43
2019-03-27T02:47:57.944Z,100366.89
2019-03-27T02:50:29.204Z,100357.06
2019-03-27T02:53:00.521Z,100362.58
2019-03-27T02:55:31.672Z,100373.30
2019-03-27T02:58:02.944Z,100366.41
2019-03-27T03:00:34.797Z,100363.91
2019-03-27T03:03:06.170Z,100364.98
2019-03-27T03:05:37.445Z,100365.19
2019-03-27T03:08:08.761Z,100368.00
2019-03-27T03:10:40.024Z,100368.34
2019-03-27T03:13:11.300Z,100365.14
2019-03-27T03:15:42.525Z,100372.06
2019-03-27T03:18:13.820Z,100374.80
2019-03-27T03:20:45.050Z,100375.76
2019-03-27T03:23:17.194Z,100372.87
2019-03-27T03:25:48.419Z,100373.62
2019-03-27T03:28:19.760Z,100379.79
2019-03-27T03:30:50.869Z,100382.92
2019-03-27T03:33:21.979Z,100382.59
2019-03-27T03:35:53.261Z,100383.20
2019-03-27T03:38:24.409Z,100383.97
2019-03-27T03:40:55.830Z,100397.77
2019-03-27T03:43:27.165Z,100396.48
2019-03-27T03:45:58.518Z,100403.37
2019-03-27T03:48:29.695Z,100397.69
2019-03-27T03:51:03.207Z,100397.34
2019-03-27T03:53:35.197Z,100403.73
2019-03-27T03:56:06.565Z,100406.30
2019-03-27T03:58:39.439Z,100403.22
2019-03-27T04:01:11.849Z,100401.95
2019-03-27T04:03:44.967Z,100398.50
2019-03-27T04:06:16.113Z,100413.56
2019-03-27T04:08:47.289Z,100418.11
2019-03-27T04:11:18.911Z,100413.56
2019-03-27T04:13:50.205Z,100415.92
2019-03-27T04:16:21.538Z,100408.13
2019-03-27T04:18:52.719Z,100414.13
2019-03-27T04:21:26.944Z,100424.64
2019-03-27T04:23:57.163Z,100413.20
2019-03-27T04:26:28.435Z,100418.82
2019-03-27T04:28:59.762Z,100418.11
2019-03-27T04:31:30.976Z,100421.35
2019-03-27T04:34:02.149Z,100420.65
2019-03-27T04:36:34.032Z,100425.91
2019-03-27T04:39:05.994Z,100428.98
2019-03-27T04:41:37.267Z,100432.61
2019-03-27T04:44:08.711Z,100429.72
2019-03-27T04:46:40.062Z,100426.61
2019-03-27T04:49:11.562Z,100430.81
2019-03-27T04:51:42.929Z,100430.42
2019-03-27T04:54:14.255Z,100438.61
2019-03-27T04:56:45.718Z,100435.89
2019-03-27T04:59:17.149Z,100437.86
2019-03-27T05:01:48.595Z,100437.33
2019-03-27T05:04:21.118Z,100436.58
2019-03-27T05:06:52.695Z,100444.39
2019-03-27T05:09:24.057Z,100439.11
2019-03-27T05:11:55.381Z,100441.99
2019-03-27T05:14:26.903Z,100440.89
2019-03-27T05:16:58.333Z,100443.42
2019-03-27T05:19:29.732Z,100442.27
2019-03-27T05:22:01.360Z,100443.32
2019-03-27T05:24:33.256Z,100453.02
2019-03-27T05:27:04.579Z,100454.53
2019-03-27T05:29:35.937Z,100458.38
2019-03-27T05:32:07.233Z,100460.43
2019-03-27T05:34:38.906Z,100461.75
2019-03-27T05:37:10.143Z,100468.08
2019-03-27T05:39:41.972Z,100471.33
2019-03-27T05:42:13.791Z,100476.95
2019-03-27T05:44:45.035Z,100486.16
2019-03-27T05:47:16.352Z,100483.67
2019-03-27T05:49:47.771Z,100495.38
2019-03-27T05:52:19.035Z,100491.30
2019-03-27T05:54:50.241Z,100497.31
2019-03-27T05:57:21.473Z,100495.25
2019-03-27T05:59:52.794Z,100504.78
2019-03-27T06:02:23.909Z,100506.13
2019-03-27T06:04:55.108Z,100505.61
2019-03-27T06:07:26.360Z,100511.34
2019-03-27T06:09:57.802Z,100514.20
2019-03-27T06:12:29.001Z,100511.22
2019-03-27T06:15:00.498Z,100513.70
2019-03-27T06:17:31.732Z,100514.52
2019-03-27T06:20:03.299Z,100530.57
2019-03-27T06:22:34.663Z,100526.09
2019-03-27T06:25:06.449Z,100526.84
2019-03-27T06:27:37.645Z,100531.95
2019-03-27T06:30:12.033Z,100527.49
2019-03-27T06:32:43.269Z,100527.98
2019-03-27T06:35:14.868Z,100526.27
2019-03-27T06:37:45.980Z,100529.70
2019-03-27T06:40:17.344Z,100526.25
2019-03-27T06:42:48.619Z,100524.95
2019-03-27T06:45:19.910Z,100527.36
2019-03-27T06:47:51.109Z,100537.86
2019-03-27T06:50:22.359Z,100553.42
2019-03-27T06:52:53.629Z,100553.62
2019-03-27T06:55:24.999Z,100553.04
2019-03-27T06:57:56.308Z,100551.00
2019-03-27T07:00:38.584Z,100552.66
2019-03-27T07:03:10.478Z,100551.73
2019-03-27T07:05:41.668Z,100556.27
2019-03-27T07:08:12.978Z,100563.42
2019-03-27T07:10:44.159Z,100569.20
2019-03-27T07:13:15.338Z,100572.02
2019-03-27T07:15:46.489Z,100575.08
2019-03-27T07:18:17.690Z,100579.58
2019-03-27T07:20:48.914Z,100581.12
2019-03-27T07:23:20.235Z,100580.50
2019-03-27T07:25:51.522Z,100584.30
2019-03-27T07:28:22.851Z,100590.44
2019-03-27T07:30:53.951Z,100583.55
2019-03-27T07:33:25.341Z,100595.17
2019-03-27T07:35:56.514Z,100594.84
2019-03-27T07:38:27.815Z,100593.28
2019-03-27T07:40:59.104Z,100585.27
2019-03-27T07:43:30.430Z,100587.50
2019-03-27T07:46:01.680Z,100588.73
2019-03-27T07:48:32.896Z,100589.98
2019-03-27T07:51:04.092Z,100595.02
2019-03-27T07:53:35.339Z,100596.31
2019-03-27T07:56:06.728Z,100599.69
2019-03-27T07:58:37.916Z,100596.30
2019-03-27T08:01:09.116Z,100608.23
2019-03-27T08:03:40.448Z,100603.50
2019-03-27T08:06:11.631Z,100604.35
2019-03-27T08:08:42.855Z,100604.56
2019-03-27T08:11:14.783Z,100605.22
2019-03-27T08:13:46.082Z,100599.84
2019-03-27T08:16:17.358Z,100597.70
2019-03-27T08:18:48.733Z,100599.89
2019-03-27T08:21:19.987Z,100600.62
2019-03-27T08:23:51.127Z,100603.02
2019-03-27T08:26:22.354Z,100613.92
2019-03-27T08:28:53.689Z,100611.55
2019-03-27T08:31:24.829Z,100621.95
2019-03-27T08:33:56.174Z,100621.98
2019-03-27T08:36:27.468Z,100623.63
2019-03-27T08:38:58.697Z,100617.55
2019-03-27T08:41:29.889Z,100623.42
2019-03-27T08:44:01.291Z,100618.20
2019-03-27T08:46:32.572Z,100622.41
2019-03-27T08:49:03.899Z,100621.81
2019-03-27T08:51:35.249Z,100620.64
2019-03-27T08:54:06.544Z,100622.44
2019-03-27T08:56:37.776Z,100624.44
2019-03-27T08:59:09.169Z,100621.98
2019-03-27T09:01:40.613Z,100630.80
2019-03-27T09:04:11.822Z,100624.27
2019-03-27T09:06:43.268Z,100619.98
2019-03-27T09:09:14.524Z,100626.26
2019-03-27T09:11:45.941Z,100623.93
2019-03-27T09:14:17.195Z,100619.83
2019-03-27T09:16:48.388Z,100623.17
2019-03-27T09:19:19.659Z,100617.84
2019-03-27T09:21:50.773Z,100629.34
2019-03-27T09:24:22.222Z,100628.53
2019-03-27T09:26:53.527Z,100627.75
2019-03-27T09:29:24.890Z,100633.44
2019-03-27T09:31:56.340Z,100634.27
2019-03-27T09:34:27.721Z,100640.42
2019-03-27T09:36:58.952Z,100634.08
2019-03-27T09:39:30.168Z,100631.00
2019-03-27T09:42:01.547Z,100642.00
2019-03-27T09:44:32.749Z,100635.08
2019-03-27T09:47:04.054Z,100628.90
2019-03-27T09:49:48.939Z,100622.59
2019-03-27T09:52:09.108Z,100623.73
2019-03-27T09:54:40.351Z,100634.41
2019-03-27T09:57:11.696Z,100628.09
2019-03-27T09:59:42.971Z,100631.02
2019-03-27T10:02:14.229Z,100632.33
2019-03-27T10:04:45.406Z,100633.94
2019-03-27T10:07:16.758Z,100629.37
2019-03-27T10:09:50.313Z,100633.61
2019-03-27T10:12:21.050Z,100637.37
2019-03-27T10:14:52.299Z,100634.94
2019-03-27T10:17:23.598Z,100632.38
2019-03-27T10:20:03.426Z,100630.43
2019-03-27T10:22:27.793Z,100636.02
2019-03-27T10:24:59.022Z,100630.14
2019-03-27T10:27:30.244Z,100640.87
2019-03-27T10:30:01.366Z,100637.83
2019-03-27T10:32:32.606Z,100638.32
2019-03-27T10:35:04.040Z,100632.06
2019-03-27T10:37:35.340Z,100629.42
2019-03-27T10:40:07.675Z,100635.05
2019-03-27T10:42:38.947Z,100625.24
2019-03-27T10:45:11.064Z,100630.21
2019-03-27T10:47:42.312Z,100622.20
2019-03-27T10:52:47.438Z,100627.43
2019-03-27T10:55:18.753Z,100622.74
2019-03-27T10:57:50.784Z,100619.14
2019-03-27T11:00:22.250Z,100626.19
2019-03-27T11:02:53.538Z,100628.72
2019-03-27T11:05:24.780Z,100623.84
2019-03-27T11:07:55.983Z,100619.67
2019-03-27T11:10:27.296Z,100605.27
2019-03-27T11:12:58.428Z,100611.50
2019-03-27T11:15:29.814Z,100608.74
2019-03-27T11:18:01.101Z,100604.64
2019-03-27T11:20:32.378Z,100596.26
2019-03-27T11:23:03.857Z,100600.63
2019-03-27T11:25:35.221Z,100600.48
2019-03-27T11:28:06.428Z,100597.91
2019-03-27T11:30:40.599Z,100599.43
2019-03-27T11:33:12.200Z,100594.88
2019-03-27T11:35:43.685Z,100592.27
2019-03-27T11:38:14.926Z,100590.84
2019-03-27T11:40:46.375Z,100589.50
2019-03-27T11:43:17.652Z,100594.88
2019-03-27T11:45:49.016Z,100602.22
2019-03-27T11:48:20.219Z,100586.36
2019-03-27T11:50:51.419Z,100589.44
2019-03-27T11:53:22.723Z,100587.91
2019-03-27T11:55:54.141Z,100582.53
2019-03-27T11:58:25.517Z,100590.52
2019-03-27T12:00:57.036Z,100581.95
2019-03-27T12:03:28.565Z,100583.85
2019-03-27T12:06:00.069Z,100589.55
2019-03-27T12:08:31.369Z,100580.58
2019-03-27T12:11:02.609Z,100592.97
2019-03-27T12:13:33.823Z,100590.84
2019-03-27T12:16:05.330Z,100583.45
2019-03-27T12:18:36.580Z,100589.45
2019-03-27T12:21:08.013Z,100579.07
2019-03-27T12:23:39.368Z,100581.02
2019-03-27T12:26:10.730Z,100577.39
2019-03-27T12:28:41.900Z,100573.35
2019-03-27T12:31:13.096Z,100582.22
2019-03-27T12:33:44.385Z,100578.30
2019-03-27T12:36:15.796Z,100582.40
2019-03-27T12:38:47.139Z,100585.11
2019-03-27T12:41:18.295Z,100585.66
2019-03-27T12:43:49.688Z,100585.05
2019-03-27T12:46:21.726Z,100580.51
2019-03-27T12:48:53.206Z,100572.97
2019-03-27T12:51:24.660Z,100575.38
2019-03-27T12:53:55.877Z,100585.83
2019-03-27T12:56:27.170Z,100583.39
2019-03-27T12:58:58.344Z,100585.00
2019-03-27T13:01:29.722Z,100582.30
2019-03-27T13:04:00.909Z,100581.91
2019-03-27T13:06:32.335Z,100574.22
2019-03-27T13:09:04.974Z,100578.83
2019-03-27T13:11:36.871Z,100575.81
2019-03-27T13:14:08.399Z,100569.64
2019-03-27T13:16:39.665Z,100566.27
2019-03-27T13:19:11.089Z,100567.09
2019-03-27T13:21:42.489Z,100579.05
2019-03-27T13:24:13.839Z,100573.91
2019-03-27T13:26:45.046Z,100571.17
2019-03-27T13:29:16.340Z,100569.23
2019-03-27T13:31:47.668Z,100578.99
2019-03-27T13:34:18.944Z,100576.02
2019-03-27T13:36:52.081Z,100565.22
2019-03-27T13:39:23.363Z,100582.85
2019-03-27T13:41:54.594Z,100579.30
2019-03-27T13:44:36.279Z,100579.27
2019-03-27T13:46:59.019Z,100568.20
2019-03-27T13:49:30.374Z,100568.27
2019-03-27T13:52:01.649Z,100577.98
2019-03-27T13:54:33.248Z,100580.60
2019-03-27T13:57:04.667Z,100565.20
2019-03-27T13:59:35.859Z,100567.05
2019-03-27T14:02:07.270Z,100569.45
2019-03-27T14:04:38.595Z,100573.52
2019-03-27T14:07:10.007Z,100568.82
2019-03-27T14:09:41.474Z,100567.43
2019-03-27T14:12:12.800Z,100566.45
2019-03-27T14:14:50.592Z,100573.16
2019-03-27T14:17:18.014Z,100569.92
2019-03-27T14:19:49.589Z,100570.23
2019-03-27T14:22:20.901Z,100576.88
2019-03-27T14:24:52.231Z,100566.30
2019-03-27T14:27:23.481Z,100572.57
2019-03-27T14:29:54.805Z,100571.24
2019-03-27T14:32:26.039Z,100571.92
2019-03-27T14:34:57.293Z,100572.87
2019-03-27T14:37:28.418Z,100570.81
2019-03-27T14:39:59.672Z,100567.95
2019-03-27T14:42:30.910Z,100574.08
2019-03-27T14:45:02.290Z,100568.84
2019-03-27T14:47:33.526Z,100568.68
2019-03-27T14:50:05.287Z,100572.84
2019-03-27T14:52:36.422Z,100576.48
2019-03-27T14:55:08.496Z,100572.60
2019-03-27T14:57:40.585Z,100583.13
2019-03-27T15:00:12.854Z,100583.80
2019-03-27T15:02:44.286Z,100580.86
2019-03-27T15:05:16.304Z,100578.39
2019-03-27T15:07:47.631Z,100580.47
2019-03-27T15:10:18.981Z,100587.33
2019-03-27T15:12:50.177Z,100582.70
2019-03-27T15:15:21.478Z,100579.44
2019-03-27T15:17:52.710Z,100582.16
2019-03-27T15:20:23.935Z,100582.70
2019-03-27T15:22:55.339Z,100584.75
2019-03-27T15:25:26.717Z,100585.68
2019-03-27T15:27:58.624Z,100583.98
2019-03-27T15:30:29.990Z,100584.94
2019-03-27T15:33:04.321Z,100584.53
2019-03-27T15:35:35.604Z,100579.64
2019-03-27T15:38:06.994Z,100586.98
2019-03-27T15:40:43.928Z,100589.70
2019-03-27T15:43:15.364Z,100592.16
2019-03-27T15:45:46.665Z,100589.44
2019-03-27T15:48:18.149Z,100583.52
2019-03-27T15:50:58.411Z,100586.11
2019-03-27T15:53:22.924Z,100584.70
2019-03-27T15:55:54.570Z,100581.20
2019-03-27T15:58:25.972Z,100588.42
2019-03-27T16:00:57.315Z,100581.98
2019-03-27T16:03:28.580Z,100583.66
2019-03-27T16:05:59.926Z,100584.73
2019-03-27T16:08:31.183Z,100587.97
2019-03-27T16:11:02.525Z,100587.98
2019-03-27T16:13:33.774Z,100587.83
2019-03-27T16:16:04.955Z,100580.88
2019-03-27T16:18:36.319Z,100576.97
2019-03-27T16:21:07.745Z,100585.45
2019-03-27T16:23:39.092Z,100586.36
2019-03-27T16:26:13.419Z,100591.57
2019-03-27T16:28:44.764Z,100584.60
2019-03-27T16:31:16.075Z,100591.09
2019-03-27T16:33:47.379Z,100592.14
2019-03-27T16:36:18.675Z,100591.64
2019-03-27T16:38:50.046Z,100586.58
2019-03-27T16:41:21.454Z,100585.53
2019-03-27T16:43:52.934Z,100586.37
2019-03-27T16:46:24.353Z,100595.00
2019-03-27T16:48:55.631Z,100591.27
2019-03-27T16:51:32.008Z,100594.09
2019-03-27T16:54:06.434Z,100591.86
2019-03-27T16:56:38.348Z,100589.40
2019-03-27T16:59:11.775Z,100597.34
2019-03-27T17:01:47.415Z,100602.73
2019-03-27T17:04:20.408Z,100606.06
2019-03-27T17:06:56.319Z,100604.77
2019-03-27T17:09:31.069Z,100608.50
2019-03-27T17:12:06.899Z,100606.64
2019-03-27T17:14:38.198Z,100608.10
2019-03-27T17:17:09.646Z,100612.44
2019-03-27T17:19:42.608Z,100611.73
2019-03-27T17:22:19.633Z,100609.27
2019-03-27T17:24:47.169Z,100608.48
2019-03-27T17:27:18.480Z,100615.39
2019-03-27T17:29:49.788Z,100609.70
2019-03-27T17:32:21.407Z,100623.83
2019-03-27T17:34:59.399Z,100618.20
2019-03-27T17:37:31.059Z,100618.98
2019-03-27T17:40:02.251Z,100628.23
2019-03-27T17:42:37.804Z,100628.70
2019-03-27T17:45:12.339Z,100623.41
2019-03-27T17:47:49.047Z,100629.44
2019-03-27T17:50:22.837Z,100627.37
2019-03-27T17:52:55.501Z,100632.89
2019-03-27T17:55:27.468Z,100631.73
2019-03-27T17:58:05.897Z,100637.06
2019-03-27T18:00:55.550Z,100634.86
2019-03-27T18:03:26.774Z,100628.66
2019-03-27T18:05:59.300Z,100630.31
2019-03-27T18:08:32.025Z,100633.30
2019-03-27T18:11:03.470Z,100630.19
2019-03-27T18:13:38.228Z,100631.47
2019-03-27T18:16:09.648Z,100635.47
2019-03-27T18:18:41.608Z,100642.03
2019-03-27T18:21:16.854Z,100641.52
2019-03-27T18:23:54.590Z,100642.03
2019-03-27T18:26:34.939Z,100640.00
2019-03-27T18:29:09.339Z,100638.95
2019-03-27T18:31:46.964Z,100648.46
2019-03-27T18:34:19.610Z,100644.61
2019-03-27T18:36:50.883Z,100643.32
2019-03-27T18:39:25.074Z,100643.18
2019-03-27T18:41:58.584Z,100650.77
2019-03-27T18:44:31.099Z,100648.19
2019-03-27T18:47:02.514Z,100649.47
2019-03-27T18:49:36.483Z,100653.06
2019-03-27T18:52:21.800Z,100655.63
2019-03-27T18:54:57.418Z,100652.01
2019-03-27T18:57:29.300Z,100645.95
2019-03-27T19:00:03.959Z,100647.64
2019-03-27T19:02:40.179Z,100645.67
2019-03-27T19:05:14.868Z,100648.02
2019-03-27T19:07:50.614Z,100648.02
2019-03-27T19:10:24.309Z,100655.50
2019-03-27T19:13:06.368Z,100647.64
2019-03-27T19:15:43.729Z,100649.06
2019-03-27T19:18:17.414Z,100655.09
2019-03-27T19:20:50.350Z,100649.95
2019-03-27T19:23:22.998Z,100644.42
2019-03-27T19:25:55.060Z,100641.95
2019-03-27T19:28:29.788Z,100641.45
2019-03-27T19:31:07.598Z,100647.23
2019-03-27T19:33:43.550Z,100642.05
2019-03-27T19:36:16.454Z,100643.23
2019-03-27T19:38:51.958Z,100648.92
2019-03-27T19:41:25.803Z,100646.86
2019-03-27T19:44:02.699Z,100640.94
2019-03-27T19:46:35.609Z,100643.14
2019-03-27T19:49:08.219Z,100650.86
2019-03-27T19:51:46.324Z,100655.87
2019-03-27T19:54:26.913Z,100655.50
2019-03-27T19:56:59.279Z,100658.34
2019-03-27T19:59:31.523Z,100663.72
2019-03-27T20:02:07.479Z,100649.47
2019-03-27T20:04:44.169Z,100655.67
2019-03-27T20:07:21.099Z,100659.53
2019-03-27T20:10:00.399Z,100656.72
2019-03-27T20:12:37.981Z,100660.21
2019-03-27T20:15:12.800Z,100658.28
2019-03-27T20:17:45.813Z,100656.35
2019-03-27T20:20:18.358Z,100664.21
2019-03-27T20:22:52.878Z,100662.69
2019-03-27T20:25:28.788Z,100659.10
2019-03-27T20:28:05.827Z,100667.05
2019-03-27T20:30:37.123Z,100657.68
2019-03-27T20:33:08.583Z,100666.82
2019-03-27T20:35:47.700Z,100669.16
2019-03-27T20:38:19.196Z,100667.00
2019-03-27T20:40:54.193Z,100673.70
2019-03-27T20:43:29.639Z,100665.23
2019-03-27T20:46:07.698Z,100669.09
2019-03-27T20:48:42.570Z,100664.83
2019-03-27T20:51:16.419Z,100666.02
2019-03-27T20:53:53.381Z,100665.64
2019-03-27T20:56:25.046Z,100659.98
2019-03-27T20:59:01.502Z,100663.85
2019-03-27T21:01:32.954Z,100661.78
2019-03-27T21:04:04.394Z,100658.16
2019-03-27T21:06:38.842Z,100659.98
2019-03-27T21:09:10.344Z,100664.63
2019-03-27T21:11:44.162Z,100659.11
2019-03-27T21:14:15.350Z,100663.61
2019-03-27T21:16:47.768Z,100661.41
2019-03-27T21:19:19.378Z,100654.06
2019-03-27T21:21:50.555Z,100654.30
2019-03-27T21:24:24.896Z,100657.92
2019-03-27T21:26:56.264Z,100661.04
2019-03-27T21:29:27.486Z,100659.45
2019-03-27T21:31:58.831Z,100658.91
2019-03-27T21:34:30.058Z,100656.43
2019-03-27T21:37:01.369Z,100653.55
2019-03-27T21:39:32.685Z,100654.46
2019-03-27T21:42:04.060Z,100649.86
2019-03-27T21:44:35.342Z,100652.94
2019-03-27T21:47:06.797Z,100658.09
2019-03-27T21:49:38.036Z,100648.58
2019-03-27T21:52:09.340Z,100656.02
2019-03-27T21:54:40.684Z,100651.66
2019-03-27T21:57:12.174Z,100652.16
2019-03-27T21:59:44.223Z,100656.33
2019-03-27T22:02:15.474Z,100650.41
2019-03-27T22:04:46.778Z,100654.53
2019-03-27T22:07:19.479Z,100648.41
2019-03-27T22:09:50.910Z,100652.27
2019-03-27T22:12:22.132Z,100650.06
2019-03-27T22:14:56.764Z,100656.03
2019-03-27T22:17:27.999Z,100648.68
2019-03-27T22:19:59.902Z,100653.96
2019-03-27T22:22:31.120Z,100643.66
2019-03-27T22:25:02.302Z,100648.20
2019-03-27T22:27:33.469Z,100644.58
2019-03-27T22:30:05.364Z,100653.35
2019-03-27T22:32:36.541Z,100642.52
2019-03-27T22:35:09.064Z,100652.58
2019-03-27T22:37:40.400Z,100643.70
2019-03-27T22:40:12.152Z,100653.63
2019-03-27T22:42:43.395Z,100652.84
2019-03-27T22:45:14.799Z,100650.03
2019-03-27T22:47:45.904Z,100654.13
2019-03-27T22:50:17.149Z,100659.28
2019-03-27T22:52:48.296Z,100652.23
2019-03-27T22:55:19.475Z,100662.66
2019-03-27T22:57:50.750Z,100660.09
2019-03-27T23:00:26.748Z,100656.33
2019-03-27T23:02:58.001Z,100655.31
2019-03-27T23:05:30.270Z,100652.81
2019-03-27T23:08:01.780Z,100649.29
2019-03-27T23:10:32.930Z,100651.22
2019-03-27T23:13:04.227Z,100646.55
2019-03-27T23:15:35.495Z,100648.61
2019-03-27T23:18:07.204Z,100643.70
2019-03-27T23:20:38.380Z,100642.41
2019-03-27T23:23:09.681Z,100649.90
2019-03-27T23:25:40.956Z,100645.90
2019-03-27T23:28:12.065Z,100647.32
2019-03-27T23:30:43.222Z,100643.70
2019-03-27T23:33:14.438Z,100646.55
2019-03-27T23:35:45.918Z,100645.36
2019-03-27T23:38:16.988Z,100647.02
2019-03-27T23:40:48.068Z,100649.08
2019-03-27T23:43:19.319Z,100647.80
2019-03-27T23:45:50.389Z,100647.28
2019-03-27T23:48:21.541Z,100642.24
2019-03-27T23:50:52.689Z,100651.62
2019-03-27T23:53:23.981Z,100646.70
2019-03-27T23:55:55.260Z,100646.20
2019-03-27T23:58:26.470Z,100648.53
